Time;durP1;ratioP1;P1;durP2;ratioP2;P2;SDS_P1;SDS_P2;PMS_P1;PMS_P2;Temp;Humidity;BMP_temperature;BMP_pressure;BME280_temperature;BME280_humidity;BME280_pressure;Samples;Min_cycle;Max_cycle;Signal;HPM_P1;HPM_P2
2021/08/17 00:01:27;;;;;;;11.18;2.20;;;;;;;12.96;52.86;100957.69;5031422;28;20087;-69
2021/08/17 00:03:52;;;;;;;8.93;1.23;;;;;;;13.38;52.06;100955.63;5023853;28;20175;-71
2021/08/17 00:06:18;;;;;;;22.33;2.63;;;;;;;13.35;52.42;100966.28;5044395;28;20034;-69
2021/08/17 00:08:46;;;;;;;15.43;1.40;;;;;;;13.44;52.21;100963.19;5035622;28;20466;-71
2021/08/17 00:11:12;;;;;;;13.15;1.55;;;;;;;13.23;52.04;100965.13;5042289;28;20025;-70
2021/08/17 00:13:37;;;;;;;10.60;2.75;;;;;;;13.42;51.79;100973.75;5043366;28;20035;-70
2021/08/17 00:16:03;;;;;;;19.15;2.00;;;;;;;13.65;51.61;100969.13;5047533;28;20122;-69
2021/08/17 00:18:28;;;;;;;15.23;1.80;;;;;;;13.63;51.47;100965.75;5011918;28;20079;-71
2021/08/17 00:20:54;;;;;;;18.42;2.90;;;;;;;13.36;52.24;100968.84;5043745;28;20137;-70
2021/08/17 00:23:19;;;;;;;12.85;1.85;;;;;;;13.60;51.82;100971.16;5040635;28;20048;-70
2021/08/17 00:25:45;;;;;;;17.65;2.25;;;;;;;13.15;52.82;100976.00;5031558;28;20091;-69
2021/08/17 00:28:11;;;;;;;12.63;1.65;;;;;;;13.47;52.06;100982.28;5032311;28;20052;-69
2021/08/17 00:30:37;;;;;;;14.77;1.50;;;;;;;13.37;51.90;100978.41;5014922;28;20037;-69
2021/08/17 00:33:03;;;;;;;21.90;1.65;;;;;;;13.30;51.77;100980.47;5012881;28;20041;-70
2021/08/17 00:35:28;;;;;;;9.88;0.88;;;;;;;13.03;52.55;100987.94;5009402;28;20036;-70
2021/08/17 00:37:54;;;;;;;25.30;2.22;;;;;;;13.17;52.08;100989.03;5027226;28;20033;-70
2021/08/17 00:40:19;;;;;;;10.73;1.30;;;;;;;13.17;52.24;100982.00;5034651;28;21353;-69
2021/08/17 00:42:46;;;;;;;6.88;1.67;;;;;;;13.29;52.11;100978.78;5045598;28;20449;-69
2021/08/17 00:45:17;;;;;;;7.53;1.80;;;;;;;13.43;51.49;100980.72;5029325;28;20080;-70
2021/08/17 00:47:43;;;;;;;19.33;2.15;;;;;;;13.72;51.02;100981.06;5028220;28;20029;-70
2021/08/17 00:50:08;;;;;;;10.95;1.40;;;;;;;12.88;53.27;100972.94;5029708;28;20048;-71
2021/08/17 00:52:34;;;;;;;17.02;2.42;;;;;;;13.09;52.24;100977.16;5035139;28;20036;-71
2021/08/17 00:55:00;;;;;;;7.85;1.70;;;;;;;13.31;52.01;100982.16;5026855;28;20029;-71
2021/08/17 00:57:25;;;;;;;11.05;1.73;;;;;;;13.27;52.07;100980.66;5038645;28;20059;-71
2021/08/17 00:59:51;;;;;;;10.00;1.25;;;;;;;13.41;51.92;100990.44;5033718;28;20021;-71
2021/08/17 01:02:16;;;;;;;14.55;2.05;;;;;;;13.36;52.53;100997.72;5040238;28;20045;-71
2021/08/17 01:04:42;;;;;;;15.13;2.25;;;;;;;13.55;51.71;100992.38;5029450;28;20028;-70
2021/08/17 01:07:10;;;;;;;17.67;2.42;;;;;;;13.02;53.37;101009.84;5041569;28;20032;-71
2021/08/17 01:09:36;;;;;;;15.88;1.50;;;;;;;12.75;54.09;101012.00;5026170;28;20029;-71
2021/08/17 01:12:02;;;;;;;12.00;1.67;;;;;;;13.25;52.72;101010.50;5045891;28;20033;-70
2021/08/17 01:14:29;;;;;;;15.60;1.60;;;;;;;13.07;53.14;101010.50;5049201;28;20449;-69
2021/08/17 01:16:54;;;;;;;14.90;1.50;;;;;;;12.78;53.54;101008.38;5028193;28;20041;-69
2021/08/17 01:19:21;;;;;;;9.50;1.17;;;;;;;12.97;52.94;101003.97;5021479;28;20037;-69
2021/08/17 01:21:48;;;;;;;7.97;0.90;;;;;;;12.87;53.33;101010.56;5027702;28;20064;-69
2021/08/17 01:24:16;;;;;;;15.85;1.30;;;;;;;13.11;52.60;101017.25;5030704;28;20083;-70
2021/08/17 01:26:42;;;;;;;17.63;1.30;;;;;;;12.95;52.87;101000.56;5047969;28;20029;-72
2021/08/17 01:29:11;;;;;;;11.32;1.20;;;;;;;13.11;53.13;101013.78;5047117;28;20577;-70
2021/08/17 01:31:38;;;;;;;9.20;0.93;;;;;;;12.98;53.53;101012.69;5012767;28;20401;-70
2021/08/17 01:34:03;;;;;;;19.63;2.10;;;;;;;13.15;53.29;101001.38;5011735;28;20456;-70
2021/08/17 01:36:29;;;;;;;10.13;2.05;;;;;;;13.07;53.87;101007.00;5029787;28;20068;-69
2021/08/17 01:38:54;;;;;;;8.63;1.25;;;;;;;12.55;55.58;101012.91;5019925;28;20044;-70
2021/08/17 01:41:20;;;;;;;14.35;1.92;;;;;;;13.31;53.52;101023.31;5045566;28;20079;-70
2021/08/17 01:43:46;;;;;;;24.08;1.80;;;;;;;13.36;53.20;101021.34;5020132;28;20170;-70
2021/08/17 01:46:12;;;;;;;9.93;2.13;;;;;;;13.08;53.87;101022.66;5024981;28;20584;-70
2021/08/17 01:48:38;;;;;;;17.42;1.67;;;;;;;12.75;54.77;101029.53;5029132;28;20032;-70
2021/08/17 01:51:05;;;;;;;8.90;1.20;;;;;;;12.92;54.10;101028.75;5030734;28;20406;-70
2021/08/17 01:53:31;;;;;;;12.85;3.67;;;;;;;12.76;54.27;101031.22;5048118;28;20033;-70
2021/08/17 01:56:04;;;;;;;13.10;1.95;;;;;;;12.52;54.41;101033.19;5023618;28;20047;-70
2021/08/17 01:58:29;;;;;;;8.25;2.15;;;;;;;13.10;53.37;101028.69;5029800;28;20033;-70
2021/08/17 02:00:55;;;;;;;8.65;1.67;;;;;;;12.93;54.03;101033.91;5025560;28;20112;-70
2021/08/17 02:03:20;;;;;;;22.50;1.80;;;;;;;12.89;54.32;101034.97;5035352;28;20116;-70
2021/08/17 02:05:46;;;;;;;15.82;2.45;;;;;;;13.23;53.18;101036.00;5043002;28;20660;-70
2021/08/17 02:08:11;;;;;;;10.93;1.90;;;;;;;12.66;54.78;101033.38;5046321;28;20033;-70
2021/08/17 02:10:37;;;;;;;14.20;2.85;;;;;;;12.76;54.73;101044.31;5030491;28;20032;-69
2021/08/17 02:13:03;;;;;;;21.17;3.60;;;;;;;12.73;54.88;101047.94;5025381;28;20041;-71
2021/08/17 02:15:29;;;;;;;10.50;2.30;;;;;;;12.70;55.02;101048.94;5030828;28;20032;-69
2021/08/17 02:17:54;;;;;;;15.32;2.38;;;;;;;12.83;54.77;101048.38;5029249;28;20024;-69
2021/08/17 02:20:20;;;;;;;13.40;1.88;;;;;;;12.89;54.61;101048.06;5039677;28;20516;-70
2021/08/17 02:22:46;;;;;;;12.98;1.83;;;;;;;13.07;54.44;101046.34;5027861;28;20080;-70
2021/08/17 02:25:13;;;;;;;8.50;1.70;;;;;;;12.87;55.44;101050.78;5022089;28;20044;-70
2021/08/17 02:27:38;;;;;;;13.38;2.10;;;;;;;12.89;55.74;101037.59;5048090;28;20059;-70
2021/08/17 02:30:05;;;;;;;17.23;1.83;;;;;;;12.74;55.87;101038.31;5031139;28;20060;-71
2021/08/17 02:32:31;;;;;;;10.95;2.55;;;;;;;12.62;55.92;101045.78;5028825;28;20067;-70
2021/08/17 02:34:57;;;;;;;19.85;1.63;;;;;;;13.02;54.61;101054.44;5044631;28;20030;-71
2021/08/17 02:37:23;;;;;;;17.27;2.50;;;;;;;12.72;56.29;101048.03;5010013;28;20086;-70
2021/08/17 02:39:49;;;;;;;13.30;2.38;;;;;;;12.42;57.64;101051.09;5028942;28;20029;-70
2021/08/17 02:42:15;;;;;;;10.45;1.77;;;;;;;12.78;56.66;101053.84;5024410;28;20039;-69
2021/08/17 02:44:41;;;;;;;16.65;2.42;;;;;;;13.01;56.17;101058.00;5023429;28;20820;-70
2021/08/17 02:47:06;;;;;;;17.80;2.78;;;;;;;12.53;57.52;101046.19;5037191;28;20052;-71
2021/08/17 02:49:33;;;;;;;12.85;1.95;;;;;;;12.85;56.81;101052.63;5044641;28;20124;-69
2021/08/17 02:52:03;;;;;;;27.77;2.47;;;;;;;12.64;57.45;101061.44;5011494;28;20518;-70
2021/08/17 02:54:29;;;;;;;18.30;2.25;;;;;;;12.49;57.74;101060.38;5044649;28;20055;-68
2021/08/17 02:56:54;;;;;;;6.13;1.40;;;;;;;12.33;58.68;101048.88;5030929;28;20471;-70
2021/08/17 02:59:20;;;;;;;23.90;3.03;;;;;;;12.39;58.24;101048.59;5021126;28;20037;-70
2021/08/17 03:01:45;;;;;;;16.10;2.00;;;;;;;12.34;58.17;101042.72;5029789;28;20452;-70
2021/08/17 03:04:11;;;;;;;13.23;1.88;;;;;;;12.17;58.76;101046.09;5028206;28;20045;-69
2021/08/17 03:06:36;;;;;;;14.18;3.00;;;;;;;12.33;58.02;101043.63;5030944;28;20091;-69
2021/08/17 03:09:02;;;;;;;12.90;2.90;;;;;;;12.50;57.65;101041.13;5041726;28;20080;-69
2021/08/17 03:11:27;;;;;;;8.05;1.65;;;;;;;12.65;56.99;101050.91;5028153;28;20048;-70
2021/08/17 03:13:53;;;;;;;18.40;3.38;;;;;;;12.12;57.81;101046.28;5011599;28;20047;-68
2021/08/17 03:16:19;;;;;;;18.95;2.10;;;;;;;12.47;56.98;101042.09;5040312;28;20034;-71
2021/08/17 03:18:44;;;;;;;16.40;2.72;;;;;;;12.35;56.97;101047.03;5039442;28;20032;-70
2021/08/17 03:21:09;;;;;;;10.10;2.20;;;;;;;12.52;56.71;101051.53;5010214;28;20467;-70
2021/08/17 03:23:35;;;;;;;15.40;2.25;;;;;;;12.41;56.79;101058.09;5019552;28;20029;-69
2021/08/17 03:26:00;;;;;;;13.13;2.20;;;;;;;12.43;56.45;101058.03;5015975;28;20081;-69
2021/08/17 03:28:26;;;;;;;13.85;2.72;;;;;;;12.22;56.47;101052.84;5042072;28;20037;-70
2021/08/17 03:30:51;;;;;;;10.50;1.27;;;;;;;12.56;55.73;101046.09;5020570;28;20075;-69
2021/08/17 03:33:17;;;;;;;14.75;1.83;;;;;;;12.55;55.47;101059.25;5020411;28;20084;-67
2021/08/17 03:35:43;;;;;;;12.15;1.27;;;;;;;12.72;54.89;101051.50;5039996;28;20025;-70
2021/08/17 03:38:08;;;;;;;12.55;2.10;;;;;;;12.55;55.14;101054.00;5028162;28;20036;-69
2021/08/17 03:40:33;;;;;;;10.80;2.00;;;;;;;12.49;55.09;101060.38;5028229;28;20036;-70
2021/08/17 03:42:59;;;;;;;17.17;1.67;;;;;;;12.62;55.16;101056.25;5022575;28;20068;-71
2021/08/17 03:45:25;;;;;;;19.25;2.97;;;;;;;12.11;56.32;101060.31;5013156;28;20029;-69
2021/08/17 03:47:51;;;;;;;9.55;1.65;;;;;;;12.23;55.83;101065.00;5041787;28;20062;-70
2021/08/17 03:50:18;;;;;;;8.82;1.90;;;;;;;12.13;55.83;101055.00;5041828;28;20179;-70
2021/08/17 03:52:44;;;;;;;20.42;2.45;;;;;;;12.74;54.50;101056.69;5029315;28;20033;-70
2021/08/17 03:55:11;;;;;;;11.75;1.02;;;;;;;12.46;54.97;101061.34;5021243;28;20036;-69
2021/08/17 03:57:37;;;;;;;7.95;1.45;;;;;;;12.72;54.33;101055.91;5043275;28;20078;-69
2021/08/17 04:00:14;;;;;;;11.43;2.17;;;;;;;12.58;53.90;101059.97;5036492;28;20049;-71
2021/08/17 04:02:41;;;;;;;7.47;1.85;;;;;;;12.43;54.17;101076.41;5024316;28;20134;-69
2021/08/17 04:05:09;;;;;;;21.50;2.47;;;;;;;12.47;54.18;101062.22;5030228;28;20052;-69
2021/08/17 04:07:34;;;;;;;12.32;2.20;;;;;;;12.05;54.99;101065.81;5030861;28;20110;-70
2021/08/17 04:10:00;;;;;;;12.15;1.17;;;;;;;12.27;54.36;101066.59;5043372;28;20672;-70
2021/08/17 04:12:25;;;;;;;11.80;1.90;;;;;;;12.67;53.35;101075.28;5026870;28;20029;-69
2021/08/17 04:14:51;;;;;;;14.95;1.60;;;;;;;12.24;54.45;101076.34;5021390;28;20047;-70
2021/08/17 04:17:16;;;;;;;16.27;1.48;;;;;;;12.47;53.73;101068.31;5029997;28;20471;-70
2021/08/17 04:19:43;;;;;;;7.00;1.90;;;;;;;12.60;53.89;101078.25;5024703;28;20117;-70
2021/08/17 04:22:09;;;;;;;7.90;1.80;;;;;;;12.53;54.12;101082.91;5041680;28;20029;-70
2021/08/17 04:24:35;;;;;;;12.15;1.80;;;;;;;12.62;53.40;101082.50;5010804;28;20044;-71
2021/08/17 04:27:01;;;;;;;15.00;1.73;;;;;;;12.35;53.91;101083.75;5049036;28;20063;-71
2021/08/17 04:29:26;;;;;;;9.05;1.83;;;;;;;12.84;52.60;101094.66;5046179;28;20517;-70
2021/08/17 04:31:52;;;;;;;14.68;1.80;;;;;;;12.52;53.16;101093.47;5044567;28;20067;-70
2021/08/17 04:34:17;;;;;;;13.07;3.20;;;;;;;12.53;53.22;101088.16;5024782;28;20136;-71
2021/08/17 04:36:43;;;;;;;5.93;0.82;;;;;;;12.57;52.67;101104.59;5029673;28;20493;-70
2021/08/17 04:39:08;;;;;;;11.93;1.80;;;;;;;12.88;52.29;101097.06;5044101;28;20034;-70
2021/08/17 04:41:34;;;;;;;11.15;0.95;;;;;;;12.49;52.78;101094.44;5030685;28;20032;-70
2021/08/17 04:43:59;;;;;;;11.95;2.63;;;;;;;12.70;52.30;101100.53;5022513;28;20548;-70
2021/08/17 04:46:25;;;;;;;17.80;3.05;;;;;;;13.03;51.93;101111.25;5019299;28;20116;-70
2021/08/17 04:48:50;;;;;;;11.57;1.25;;;;;;;13.24;51.38;101098.03;5029288;28;20083;-70
2021/08/17 04:51:16;;;;;;;14.93;2.08;;;;;;;12.87;52.12;101102.38;5045115;28;20119;-70
2021/08/17 04:53:42;;;;;;;12.73;1.67;;;;;;;12.81;51.95;101114.03;5033812;28;20040;-71
2021/08/17 04:56:07;;;;;;;6.57;1.00;;;;;;;12.78;51.92;101111.56;5024232;28;20086;-71
2021/08/17 04:58:33;;;;;;;11.75;1.52;;;;;;;13.00;51.71;101121.88;5013462;28;20535;-70
2021/08/17 05:00:59;;;;;;;9.23;0.80;;;;;;;13.13;51.47;101118.69;5009829;28;20040;-70
2021/08/17 05:03:26;;;;;;;14.55;1.73;;;;;;;12.97;51.52;101116.78;5024601;28;20032;-70
2021/08/17 05:05:52;;;;;;;6.50;1.20;;;;;;;13.17;51.43;101125.50;5026601;28;20033;-70
2021/08/17 05:08:17;;;;;;;7.13;1.50;;;;;;;13.26;50.99;101127.69;5030671;28;20043;-70
2021/08/17 05:10:43;;;;;;;5.38;1.73;;;;;;;13.32;50.27;101124.78;5006272;28;20407;-70
2021/08/17 05:13:08;;;;;;;6.85;1.17;;;;;;;13.36;49.98;101125.47;5041273;28;20083;-71
2021/08/17 05:15:34;;;;;;;11.00;1.55;;;;;;;13.04;50.57;101125.22;5043275;28;20465;-70
2021/08/17 05:17:59;;;;;;;7.45;1.00;;;;;;;13.39;49.60;101123.56;5015079;28;20542;-70
2021/08/17 05:20:25;;;;;;;8.90;1.52;;;;;;;13.10;50.17;101119.69;5013753;28;20041;-70
2021/08/17 05:22:51;;;;;;;5.97;0.80;;;;;;;13.33;49.72;101118.59;5027033;28;20592;-70
2021/08/17 05:25:18;;;;;;;8.35;0.98;;;;;;;13.50;49.62;101121.28;5018160;28;20294;-70
2021/08/17 05:27:44;;;;;;;4.55;0.80;;;;;;;13.70;49.09;101132.63;5028133;28;20029;-70
2021/08/17 05:30:09;;;;;;;11.60;0.80;;;;;;;13.89;48.89;101135.19;5045172;28;20033;-70
2021/08/17 05:32:35;;;;;;;3.25;0.70;;;;;;;13.38;49.27;101134.13;5013928;28;20056;-71
2021/08/17 05:35:01;;;;;;;6.57;0.93;;;;;;;13.84;48.73;101142.44;5053749;23;20522;-69
2021/08/17 05:37:26;;;;;;;11.07;1.02;;;;;;;13.50;48.96;101151.94;5056193;28;20063;-69
2021/08/17 05:39:52;;;;;;;9.40;1.50;;;;;;;13.19;49.80;101142.03;5035382;28;20482;-69
2021/08/17 05:42:18;;;;;;;16.48;1.33;;;;;;;13.22;49.11;101134.84;5042295;28;20569;-69
2021/08/17 05:44:44;;;;;;;10.00;1.50;;;;;;;13.56;48.50;101137.66;5042886;28;20119;-69
2021/08/17 05:47:12;;;;;;;6.28;0.63;;;;;;;13.76;47.87;101147.22;5043434;28;20128;-68
2021/08/17 05:49:38;;;;;;;9.82;0.65;;;;;;;13.75;47.87;101137.66;5043381;28;20044;-69
2021/08/17 05:52:09;;;;;;;11.60;1.75;;;;;;;13.56;47.77;101142.91;5044072;28;20037;-68
2021/08/17 05:54:35;;;;;;;12.05;1.60;;;;;;;14.01;47.37;101138.97;5038427;28;20040;-72
2021/08/17 05:57:01;;;;;;;12.20;1.27;;;;;;;14.05;46.76;101130.84;5036474;28;20041;-69
2021/08/17 05:59:28;;;;;;;7.63;0.95;;;;;;;14.14;46.55;101142.66;5040923;28;20065;-70
2021/08/17 06:01:54;;;;;;;7.70;1.45;;;;;;;14.48;45.78;101144.47;5049492;28;20095;-70
2021/08/17 06:04:20;;;;;;;8.43;0.60;;;;;;;14.14;46.31;101151.44;5035054;28;20043;-69
2021/08/17 06:06:47;;;;;;;8.15;0.80;;;;;;;14.08;46.08;101149.09;5038290;28;20507;-69
2021/08/17 06:09:12;;;;;;;7.82;0.88;;;;;;;14.45;45.56;101156.91;5048417;28;20044;-69
2021/08/17 06:11:38;;;;;;;7.72;1.15;;;;;;;14.21;46.17;101149.34;5035867;28;20632;-70
2021/08/17 06:14:03;;;;;;;5.32;0.85;;;;;;;13.93;46.70;101157.75;5046800;28;20041;-68
2021/08/17 06:16:28;;;;;;;7.32;0.80;;;;;;;14.06;46.49;101169.34;5038470;28;20316;-69
2021/08/17 06:18:54;;;;;;;11.48;1.63;;;;;;;14.07;46.62;101164.94;5035936;28;20124;-69
2021/08/17 06:21:20;;;;;;;11.15;0.90;;;;;;;14.08;46.69;101166.66;5035776;28;20252;-70
2021/08/17 06:23:46;;;;;;;12.65;1.85;;;;;;;13.76;47.04;101170.84;5036954;28;20094;-70
2021/08/17 06:26:11;;;;;;;11.48;0.65;;;;;;;13.86;47.24;101174.75;5045648;28;20482;-70
2021/08/17 06:28:37;;;;;;;9.90;0.70;;;;;;;14.06;46.92;101174.59;5037081;28;20036;-67
2021/08/17 06:31:02;;;;;;;7.95;1.45;;;;;;;13.65;47.59;101180.13;5041580;28;20531;-69
2021/08/17 06:33:28;;;;;;;6.97;0.43;;;;;;;14.33;46.51;101172.34;5048836;28;20032;-69
2021/08/17 06:35:54;;;;;;;14.95;1.35;;;;;;;14.06;46.53;101171.13;5041763;28;20124;-69
2021/08/17 06:38:19;;;;;;;5.60;1.40;;;;;;;14.40;45.90;101172.06;5041621;28;20037;-70
2021/08/17 06:40:44;;;;;;;13.82;0.93;;;;;;;14.90;45.74;101166.81;5049301;28;20367;-69
2021/08/17 06:43:10;;;;;;;11.52;1.33;;;;;;;15.28;44.55;101165.66;5040334;28;20028;-69
2021/08/17 06:45:38;;;;;;;11.85;1.17;;;;;;;17.92;39.55;101159.38;5042638;28;20152;-69
2021/08/17 06:48:04;;;;;;;7.70;0.57;;;;;;;19.79;35.31;101161.28;5047723;28;20116;-71
2021/08/17 06:50:30;;;;;;;5.28;1.48;;;;;;;21.39;32.63;101151.50;5036130;28;20036;-71
2021/08/17 06:52:55;;;;;;;10.00;0.57;;;;;;;20.66;33.68;101156.41;5034406;28;20075;-71
2021/08/17 06:55:20;;;;;;;6.78;0.88;;;;;;;21.76;31.85;101160.81;5039387;28;20049;-69
2021/08/17 06:57:46;;;;;;;7.15;1.00;;;;;;;21.11;32.33;101153.72;5030690;28;20041;-69
2021/08/17 07:00:12;;;;;;;4.88;0.50;;;;;;;19.58;34.82;101172.50;5031251;28;20033;-70
2021/08/17 07:02:37;;;;;;;7.68;0.73;;;;;;;18.80;37.20;101170.97;5037699;28;20409;-70
2021/08/17 07:05:04;;;;;;;8.85;1.15;;;;;;;18.02;38.24;101171.88;5035481;28;20040;-71
2021/08/17 07:07:31;;;;;;;6.30;0.90;;;;;;;17.35;39.11;101171.81;5037898;28;20413;-70
2021/08/17 07:09:56;;;;;;;9.18;0.82;;;;;;;16.85;40.15;101169.75;5049246;28;20044;-70
2021/08/17 07:12:21;;;;;;;6.57;0.63;;;;;;;16.81;39.87;101183.13;5037288;28;20111;-70
2021/08/17 07:14:47;;;;;;;7.32;1.33;;;;;;;16.45;41.30;101169.53;5037505;28;20033;-71
2021/08/17 07:17:12;;;;;;;5.05;0.65;;;;;;;15.58;42.99;101174.47;5036736;28;20030;-70
2021/08/17 07:19:38;;;;;;;10.48;1.00;;;;;;;15.40;43.77;101186.06;5029719;28;20524;-71
2021/08/17 07:22:07;;;;;;;8.70;0.63;;;;;;;15.73;43.53;101177.19;5039682;28;20037;-72
2021/08/17 07:24:33;;;;;;;11.32;0.50;;;;;;;15.83;43.05;101186.25;5040314;28;20036;-71
2021/08/17 07:26:59;;;;;;;5.72;0.65;;;;;;;15.90;42.88;101178.84;5061473;22;20749;-68
2021/08/17 07:29:25;;;;;;;10.50;0.75;;;;;;;16.41;42.59;101180.22;5041056;28;20029;-68
2021/08/17 07:31:50;;;;;;;3.58;0.98;;;;;;;15.90;42.79;101174.41;5048575;28;20045;-69
2021/08/17 07:34:16;;;;;;;8.68;1.58;;;;;;;15.48;43.23;101186.50;5052203;28;20040;-68
2021/08/17 07:36:41;;;;;;;6.30;0.55;;;;;;;15.78;42.95;101185.69;5033910;28;20065;-69
2021/08/17 07:39:08;;;;;;;7.38;0.90;;;;;;;15.69;43.35;101186.22;5040005;28;20049;-68
2021/08/17 07:41:35;;;;;;;6.57;1.35;;;;;;;15.08;43.64;101183.38;5040840;28;20036;-68
2021/08/17 07:44:01;;;;;;;11.55;0.95;;;;;;;15.34;43.47;101195.13;5032390;28;20083;-68
2021/08/17 07:46:27;;;;;;;8.68;0.63;;;;;;;15.35;44.31;101194.22;5034100;28;20452;-68
2021/08/17 07:48:52;;;;;;;5.38;0.43;;;;;;;15.15;44.42;101192.63;5036500;28;20052;-68
2021/08/17 07:51:18;;;;;;;9.70;0.82;;;;;;;15.36;44.03;101190.63;5033047;28;20037;-68
2021/08/17 07:53:44;;;;;;;8.32;1.40;;;;;;;14.90;44.13;101198.38;5038221;28;20029;-69
2021/08/17 07:56:10;;;;;;;9.02;0.68;;;;;;;15.16;44.58;101214.53;5037959;28;20052;-68
2021/08/17 07:58:38;;;;;;;6.03;0.95;;;;;;;14.87;44.88;101206.41;5037668;28;20130;-69
2021/08/17 08:01:04;;;;;;;6.05;0.77;;;;;;;14.86;44.98;101196.84;5042399;28;20036;-68
2021/08/17 08:03:29;;;;;;;6.85;0.98;;;;;;;14.94;45.01;101209.56;5037958;28;20045;-69
2021/08/17 08:05:55;;;;;;;6.72;0.45;;;;;;;15.20;44.45;101200.28;5038927;28;20037;-68
2021/08/17 08:08:21;;;;;;;5.28;1.40;;;;;;;14.91;45.02;101207.97;5038581;28;20033;-68
2021/08/17 08:10:46;;;;;;;5.35;0.68;;;;;;;14.59;45.14;101203.53;5036185;28;20087;-67
2021/08/17 08:13:12;;;;;;;5.30;0.50;;;;;;;14.84;44.77;101208.38;5035934;28;20382;-68
2021/08/17 08:15:37;;;;;;;10.75;1.63;;;;;;;14.73;44.74;101204.53;5034964;28;20034;-69
2021/08/17 08:18:03;;;;;;;8.30;1.50;;;;;;;14.80;44.55;101209.47;5037385;28;20413;-68
2021/08/17 08:20:30;;;;;;;10.65;0.88;;;;;;;14.64;45.34;101212.06;5036716;28;20454;-68
2021/08/17 08:22:55;;;;;;;6.55;0.60;;;;;;;15.03;44.74;101219.59;5052995;28;20048;-68
2021/08/17 08:25:21;;;;;;;9.48;1.17;;;;;;;14.93;44.79;101213.16;5038633;28;20037;-68
2021/08/17 08:27:47;;;;;;;14.23;1.17;;;;;;;14.88;44.95;101215.16;5040637;28;20150;-67
2021/08/17 08:30:13;;;;;;;10.77;0.73;;;;;;;15.23;44.38;101221.19;5038192;28;20045;-68
2021/08/17 08:32:39;;;;;;;8.82;1.30;;;;;;;15.63;43.61;101220.81;5036417;28;22033;-68
2021/08/17 08:35:07;;;;;;;10.05;1.17;;;;;;;15.62;43.16;101219.97;5036313;28;20040;-68
2021/08/17 08:37:33;;;;;;;5.90;0.68;;;;;;;15.71;42.92;101221.22;5047762;28;20385;-68
2021/08/17 08:39:58;;;;;;;7.65;0.60;;;;;;;15.75;43.26;101220.97;5038058;28;20033;-69
2021/08/17 08:42:25;;;;;;;5.05;0.70;;;;;;;15.72;42.66;101228.19;5042278;28;20025;-68
2021/08/17 08:44:52;;;;;;;5.03;0.82;;;;;;;15.39;43.56;101237.00;5039808;28;20029;-69
2021/08/17 08:47:18;;;;;;;5.10;0.60;;;;;;;15.21;42.54;101227.47;5034839;28;20587;-68
2021/08/17 08:49:47;;;;;;;12.52;0.82;;;;;;;15.33;42.80;101222.41;5022117;28;20034;-67
2021/08/17 08:52:12;;;;;;;8.57;1.02;;;;;;;15.16;42.77;101231.19;5041702;28;20043;-67
2021/08/17 08:54:38;;;;;;;6.53;0.68;;;;;;;15.21;42.17;101233.56;5035695;28;23426;-68
2021/08/17 08:57:03;;;;;;;9.73;2.40;;;;;;;16.13;41.58;101238.19;5034210;28;20095;-67
2021/08/17 08:59:29;;;;;;;8.70;0.73;;;;;;;15.97;40.18;101238.19;5033510;28;20052;-67
2021/08/17 09:02:06;;;;;;;11.20;1.77;;;;;;;15.34;41.54;101229.38;5037623;28;20061;-68
2021/08/17 09:04:31;;;;;;;4.38;1.08;;;;;;;15.36;42.36;101232.78;5036583;28;20474;-68
2021/08/17 09:06:57;;;;;;;6.80;1.10;;;;;;;15.37;42.66;101229.22;5035638;28;20125;-67
2021/08/17 09:09:23;;;;;;;7.38;1.08;;;;;;;16.13;41.59;101225.88;5036276;28;20087;-68
2021/08/17 09:11:57;;;;;;;7.60;1.02;;;;;;;18.30;37.63;101217.69;5034783;28;20060;-68
2021/08/17 09:14:28;;;;;;;1.60;0.77;;;;;;;20.18;35.55;101217.63;5040147;28;20040;-68
2021/08/17 09:17:02;;;;;;;5.50;0.70;;;;;;;20.70;34.65;101201.19;5035401;28;20430;-68
2021/08/17 09:19:35;;;;;;;5.30;1.17;;;;;;;20.31;35.35;101213.94;5033787;28;20471;-68
2021/08/17 09:22:19;;;;;;;10.60;0.80;;;;;;;20.18;34.13;101209.66;5050571;28;20482;-68
2021/08/17 09:24:47;;;;;;;8.38;1.02;;;;;;;19.23;35.44;101217.44;5036092;28;20044;-68
2021/08/17 09:27:16;;;;;;;12.05;1.52;;;;;;;18.95;36.35;101216.78;5037301;28;20100;-68
2021/08/17 09:29:44;;;;;;;8.40;1.83;;;;;;;17.75;36.14;101222.13;5041107;28;20037;-67
2021/08/17 09:32:25;;;;;;;13.77;1.42;;;;;;;17.15;38.19;101228.56;5042050;28;20036;-67
2021/08/17 09:34:53;;;;;;;12.23;1.20;;;;;;;16.81;38.97;101219.25;5037182;28;20526;-68
2021/08/17 09:37:19;;;;;;;9.98;1.45;;;;;;;16.02;40.43;101230.91;5034162;28;20025;-68
2021/08/17 09:39:47;;;;;;;9.23;1.65;;;;;;;16.42;39.62;101218.88;5034129;28;20084;-68
2021/08/17 09:42:15;;;;;;;6.43;1.10;;;;;;;16.39;39.17;101212.94;5037625;28;20037;-67
2021/08/17 09:44:41;;;;;;;10.23;2.55;;;;;;;15.62;40.64;101221.72;5036878;28;20478;-67
2021/08/17 09:47:07;;;;;;;12.50;2.13;;;;;;;16.30;39.62;101216.94;5036845;28;20164;-67
2021/08/17 09:49:33;;;;;;;11.38;1.95;;;;;;;16.73;39.88;101221.44;5034902;28;20033;-67
2021/08/17 09:52:15;;;;;;;9.05;1.27;;;;;;;16.72;40.02;101220.59;5034652;28;20038;-67
2021/08/17 09:54:44;;;;;;;;;;;;;;;16.55;39.79;101231.31;5044610;28;20036;-67
2021/08/17 09:57:10;;;;;;;9.93;1.25;;;;;;;16.04;40.60;101233.44;5034394;28;19912;-68
2021/08/17 09:59:38;;;;;;;6.80;1.27;;;;;;;16.03;39.28;101231.75;5036559;28;20130;-68
2021/08/17 10:02:05;;;;;;;8.60;1.20;;;;;;;16.05;39.22;101232.53;5035569;28;20028;-68
2021/08/17 10:04:31;;;;;;;4.95;0.95;;;;;;;16.38;38.91;101240.25;5044415;28;20055;-68
2021/08/17 10:06:59;;;;;;;9.13;1.55;;;;;;;16.22;38.23;101227.13;5042960;28;20044;-67
2021/08/17 10:09:26;;;;;;;4.75;1.10;;;;;;;16.92;37.90;101226.50;5046006;28;20037;-68
2021/08/17 10:11:52;;;;;;;4.07;0.88;;;;;;;16.62;38.32;101235.28;5038612;28;20029;-67
2021/08/17 10:14:17;;;;;;;8.82;0.95;;;;;;;16.67;37.19;101230.59;5041219;28;20045;-68
2021/08/17 10:16:44;;;;;;;5.53;1.17;;;;;;;16.73;36.61;101227.59;5034613;28;20048;-68
2021/08/17 10:19:22;;;;;;;4.40;1.10;;;;;;;17.26;36.09;101227.88;5036858;28;20032;-68
2021/08/17 10:21:50;;;;;;;7.75;1.50;;;;;;;17.28;36.07;101227.81;5035172;28;20277;-68
2021/08/17 10:24:39;;;;;;;5.07;1.13;;;;;;;17.86;35.25;101221.44;5036246;28;20025;-67
2021/08/17 10:27:23;;;;;;;8.15;1.10;;;;;;;17.28;35.28;101217.25;5040385;28;20426;-67
2021/08/17 10:29:59;;;;;;;7.18;1.23;;;;;;;17.00;35.24;101221.59;5038244;28;20033;-68
2021/08/17 10:32:54;;;;;;;5.75;1.48;;;;;;;17.59;34.70;101229.38;5051346;28;20080;-68
2021/08/17 10:35:30;;;;;;;5.80;1.35;;;;;;;17.28;34.69;101227.81;5032283;28;20480;-69
2021/08/17 10:38:10;;;;;;;6.57;1.58;;;;;;;18.14;34.29;101219.59;5049657;28;20034;-68
2021/08/17 10:40:52;;;;;;;;;;;;;;;18.22;32.84;101225.28;5033919;28;20450;-68
2021/08/17 10:43:27;;;;;;;5.00;1.63;;;;;;;18.76;31.84;101229.56;5034560;28;19964;-68
2021/08/17 10:46:01;;;;;;;15.57;2.58;;;;;;;17.81;32.57;101247.34;5033085;28;20043;-67
2021/08/17 10:48:45;;;;;;;5.50;1.70;;;;;;;17.85;33.91;101239.13;5048029;28;20041;-68
2021/08/17 10:51:31;;;;;;;9.20;2.65;;;;;;;17.79;34.18;101241.31;5033552;28;20029;-68
2021/08/17 10:53:59;;;;;;;5.90;1.88;;;;;;;18.03;34.79;101237.06;5023294;28;20045;-68
2021/08/17 10:56:30;;;;;;;6.65;1.88;;;;;;;17.30;34.99;101233.84;5034701;28;20060;-68
2021/08/17 10:58:57;;;;;;;7.07;2.63;;;;;;;17.57;34.13;101234.75;5036197;28;20041;-68
2021/08/17 11:01:34;;;;;;;8.25;2.13;;;;;;;17.41;34.60;101245.41;5042660;28;20040;-68
2021/08/17 11:04:13;;;;;;;7.05;2.85;;;;;;;17.15;35.52;101260.25;5033589;28;20037;-67
2021/08/17 11:06:44;;;;;;;9.07;2.70;;;;;;;17.50;35.03;101249.31;5037575;28;20032;-68
2021/08/17 11:09:11;;;;;;;;;;;;;;;17.10;36.17;101251.78;5034315;28;20086;-68
2021/08/17 11:11:38;;;;;;;8.75;3.55;;;;;;;17.16;36.52;101259.31;5033106;28;19916;-69
2021/08/17 11:14:18;;;;;;;10.43;2.72;;;;;;;17.13;36.95;101261.28;5033372;28;20080;-68
2021/08/17 11:16:47;;;;;;;9.00;3.30;;;;;;;16.65;38.36;101258.88;5034729;28;20041;-67
2021/08/17 11:19:14;;;;;;;14.65;3.38;;;;;;;17.16;37.25;101253.19;5037954;28;20033;-68
2021/08/17 11:21:51;;;;;;;7.97;3.13;;;;;;;16.97;37.46;101250.81;5040940;28;20033;-68